Time;durP1;ratioP1;P1;durP2;ratioP2;P2;SDS_P1;SDS_P2;PMS_P1;PMS_P2;Temp;Humidity;BMP_temperature;BMP_pressure;BME280_temperature;BME280_humidity;BME280_pressure;Samples;Min_cycle;Max_cycle;Signal;HPM_P1;HPM_P2
2023/02/03 00:03:49;;;;;;;9.03;2.97;;;;;9.20;102165.00;;;;10097462;29;20215;-80
2023/02/03 00:08:54;;;;;;;7.07;2.93;;;;;9.20;102155.00;;;;10082449;29;20223;-81
2023/02/03 00:13:56;;;;;;;7.03;3.13;;;;;9.20;102125.00;;;;10128165;29;20224;-80
2023/02/03 00:18:58;;;;;;;8.03;2.63;;;;;9.10;102130.00;;;;10097591;29;20203;-81
2023/02/03 00:24:00;;;;;;;3.20;2.63;;;;;9.10;102130.00;;;;10097965;29;20203;-80
2023/02/03 00:29:02;;;;;;;6.13;2.83;;;;;9.10;102125.00;;;;10112344;29;20267;-80
2023/02/03 00:34:04;;;;;;;6.90;2.80;;;;;9.10;102133.00;;;;10082485;29;20624;-80
2023/02/03 00:39:07;;;;;;;11.57;3.00;;;;;9.10;102146.00;;;;10097287;29;20215;-81
2023/02/03 00:44:09;;;;;;;6.60;2.83;;;;;9.20;102148.00;;;;10091955;29;20226;-80
2023/02/03 00:49:11;;;;;;;10.47;3.00;;;;;9.20;102175.00;;;;10043430;29;20260;-80
2023/02/03 00:54:13;;;;;;;9.07;2.80;;;;;9.20;102168.00;;;;10028126;29;20581;-80
2023/02/03 00:59:15;;;;;;;12.53;3.23;;;;;9.30;102175.00;;;;10043729;29;20203;-80
2023/02/03 01:04:17;;;;;;;7.37;3.30;;;;;9.30;102180.00;;;;10058000;29;20617;-81
2023/02/03 01:09:19;;;;;;;6.83;2.50;;;;;9.30;102203.00;;;;10074028;29;20245;-81
2023/02/03 01:14:21;;;;;;;7.33;2.50;;;;;9.30;102211.00;;;;10054654;29;20325;-80
2023/02/03 01:19:23;;;;;;;7.87;2.10;;;;;9.30;102205.00;;;;10120395;29;20195;-81
2023/02/03 01:24:25;;;;;;;7.93;2.03;;;;;9.30;102208.00;;;;10117306;29;20242;-81
2023/02/03 01:29:27;;;;;;;4.97;2.30;;;;;9.30;102201.00;;;;10096733;29;20230;-80
2023/02/03 01:34:29;;;;;;;9.37;2.00;;;;;9.30;102200.00;;;;10103410;29;20567;-80
2023/02/03 01:39:33;;;;;;;8.23;1.77;;;;;9.30;102223.00;;;;10104396;29;20203;-81
2023/02/03 01:44:40;;;;;;;5.13;1.73;;;;;9.30;102215.00;;;;10126743;29;20210;-80
2023/02/03 01:50:09;;;;;;;16.57;2.30;;;;;9.30;102226.00;;;;10143757;29;20199;-80
2023/02/03 01:55:14;;;;;;;11.43;2.13;;;;;9.30;102208.00;;;;10115440;29;20234;-80
2023/02/03 02:00:17;;;;;;;7.70;1.80;;;;;9.30;102210.00;;;;10118750;29;20306;-83
2023/02/03 02:05:30;;;;;;;6.33;1.60;;;;;9.30;102217.00;;;;10118162;29;20223;-82
2023/02/03 02:10:33;;;;;;;10.53;2.50;;;;;9.20;102212.00;;;;10102431;29;20223;-83
2023/02/03 02:16:08;;;;;;;4.20;1.57;;;;;9.30;102206.00;;;;10081659;29;20402;-83
2023/02/03 02:21:18;;;;;;;8.13;1.93;;;;;9.20;102226.00;;;;10055306;29;20537;-82
2023/02/03 02:26:51;;;;;;;4.57;1.67;;;;;9.20;102192.00;;;;10095569;29;20208;-83
2023/02/03 02:32:09;;;;;;;8.07;2.50;;;;;9.20;102175.00;;;;10119759;29;20726;-83
2023/02/03 02:37:25;;;;;;;9.30;1.70;;;;;9.20;102176.00;;;;10103213;29;20233;-83
2023/02/03 02:42:43;;;;;;;5.33;1.30;;;;;9.20;102166.00;;;;10101740;29;20738;-82
2023/02/03 02:47:45;;;;;;;10.40;1.57;;;;;9.20;102149.00;;;;10115264;29;20234;-82
2023/02/03 02:52:49;;;;;;;5.33;1.27;;;;;9.30;102156.00;;;;10101249;29;20402;-82
2023/02/03 02:57:56;;;;;;;5.80;1.33;;;;;9.20;102151.00;;;;10086260;29;20227;-83
2023/02/03 03:03:13;;;;;;;7.70;3.70;;;;;9.30;102167.00;;;;10102658;29;20210;-82
2023/02/03 03:08:21;;;;;;;9.20;2.50;;;;;9.30;102173.00;;;;10117986;29;20314;-84
2023/02/03 03:13:29;;;;;;;6.57;1.50;;;;;9.30;102164.00;;;;10134793;29;20203;-83
2023/02/03 03:18:36;;;;;;;3.07;0.93;;;;;9.30;102169.00;;;;10086301;29;20869;-82
2023/02/03 03:23:41;;;;;;;5.17;1.47;;;;;9.30;102179.00;;;;10116622;29;20216;-83
2023/02/03 03:28:53;;;;;;;5.00;1.23;;;;;9.30;102171.00;;;;10099634;29;20263;-83
2023/02/03 03:33:55;;;;;;;5.57;1.87;;;;;9.30;102189.00;;;;10114943;29;20219;-82
2023/02/03 03:39:26;;;;;;;4.13;1.30;;;;;9.30;102190.00;;;;10117694;29;20292;-83
2023/02/03 03:44:36;;;;;;;5.30;1.53;;;;;9.30;102188.00;;;;10091215;29;20771;-83
2023/02/03 03:49:42;;;;;;;4.40;1.37;;;;;9.30;102190.00;;;;10114990;29;20275;-82
2023/02/03 03:54:46;;;;;;;7.07;1.93;;;;;9.30;102206.00;;;;10099522;29;20888;-83
2023/02/03 03:59:49;;;;;;;8.57;1.37;;;;;9.30;102190.00;;;;10117796;29;20318;-82
2023/02/03 04:04:53;;;;;;;5.73;1.23;;;;;9.30;102183.00;;;;10086814;29;20754;-82
2023/02/03 04:09:54;;;;;;;4.13;1.30;;;;;9.30;102163.00;;;;10116545;29;20231;-83
2023/02/03 04:14:56;;;;;;;8.47;2.07;;;;;9.30;102154.00;;;;10070885;29;20238;-83
2023/02/03 04:19:58;;;;;;;6.10;1.20;;;;;9.30;102166.00;;;;10099534;29;20200;-83
2023/02/03 04:25:00;;;;;;;7.30;1.60;;;;;9.30;102171.00;;;;10098657;29;20620;-82
2023/02/03 04:30:02;;;;;;;4.07;1.20;;;;;9.30;102161.00;;;;10092048;29;20204;-82
2023/02/03 04:35:06;;;;;;;4.03;1.30;;;;;9.30;102151.00;;;;10069915;29;20220;-84
2023/02/03 04:40:08;;;;;;;9.13;1.27;;;;;9.30;102169.00;;;;10085204;29;20376;-83
2023/02/03 04:45:11;;;;;;;7.23;1.40;;;;;9.30;102169.00;;;;10116759;29;20203;-83
2023/02/03 04:50:13;;;;;;;5.90;1.17;;;;;9.30;102167.00;;;;10085440;29;20195;-83
2023/02/03 04:55:15;;;;;;;4.13;0.97;;;;;9.20;102176.00;;;;10084559;29;20275;-83
2023/02/03 05:00:17;;;;;;;6.83;1.40;;;;;9.20;102167.00;;;;10113273;29;20298;-82
2023/02/03 05:05:19;;;;;;;5.07;1.50;;;;;9.20;102189.00;;;;10113649;29;20233;-83
2023/02/03 05:10:21;;;;;;;5.87;1.03;;;;;9.20;102192.00;;;;10104050;29;20624;-84
2023/02/03 05:15:23;;;;;;;6.40;1.73;;;;;9.20;102191.00;;;;10135278;29;20326;-83
2023/02/03 05:20:25;;;;;;;5.57;1.37;;;;;9.20;102203.00;;;;10096684;29;20224;-83
2023/02/03 05:25:27;;;;;;;4.70;1.10;;;;;9.20;102173.00;;;;10090200;29;20227;-83
2023/02/03 05:30:29;;;;;;;3.80;1.60;;;;;9.20;102187.00;;;;10118861;29;20925;-83
2023/02/03 05:35:31;;;;;;;5.03;0.73;;;;;9.20;102189.00;;;;10103968;29;20259;-82
2023/02/03 05:45:54;;;;;;;2.73;1.03;;;;;9.30;102185.00;;;;10121668;29;20621;-83
2023/02/03 05:50:56;;;;;;;4.77;1.00;;;;;9.20;102185.00;;;;10069031;29;20216;-83
2023/02/03 05:55:58;;;;;;;4.00;1.00;;;;;9.30;102211.00;;;;10102196;29;20369;-83
2023/02/03 06:01:00;;;;;;;2.63;1.40;;;;;9.30;102201.00;;;;10120724;29;20694;-83
2023/02/03 06:06:02;;;;;;;3.73;1.47;;;;;9.30;102225.00;;;;10118879;29;20710;-82
2023/02/03 06:11:04;;;;;;;4.47;1.40;;;;;9.30;102212.00;;;;10106504;29;20294;-83
2023/02/03 06:16:06;;;;;;;3.67;0.90;;;;;9.30;102203.00;;;;10105899;29;20238;-83
2023/02/03 06:21:08;;;;;;;3.63;1.10;;;;;9.30;102202.00;;;;10102194;29;20216;-83
2023/02/03 06:26:10;;;;;;;7.80;1.23;;;;;9.30;102203.00;;;;10103564;29;20204;-83
2023/02/03 06:31:12;;;;;;;2.93;1.60;;;;;9.30;102198.00;;;;10115221;29;20192;-82
2023/02/03 06:36:15;;;;;;;3.40;0.90;;;;;9.30;102203.00;;;;10087274;29;20232;-82
2023/02/03 06:41:16;;;;;;;5.33;1.20;;;;;9.30;102208.00;;;;10134579;29;20210;-83
2023/02/03 06:46:18;;;;;;;4.47;1.43;;;;;9.30;102205.00;;;;10072789;29;20367;-83
2023/02/03 06:51:21;;;;;;;5.60;1.40;;;;;9.30;102203.00;;;;10088709;29;20203;-83
2023/02/03 06:56:23;;;;;;;10.83;0.90;;;;;9.30;102214.00;;;;10105919;29;20230;-83
2023/02/03 07:01:25;;;;;;;3.20;1.00;;;;;9.30;102216.00;;;;10118749;29;20204;-83
2023/02/03 07:06:29;;;;;;;5.50;1.40;;;;;9.20;102211.00;;;;10104443;29;20221;-83
2023/02/03 07:11:31;;;;;;;4.30;1.47;;;;;9.10;102215.00;;;;10089400;29;20214;-83
2023/02/03 07:16:35;;;;;;;3.50;1.17;;;;;9.20;102231.00;;;;10087584;29;20295;-83
2023/02/03 07:21:37;;;;;;;4.53;0.90;;;;;9.30;102220.00;;;;10135100;29;20274;-83
2023/02/03 07:26:39;;;;;;;3.70;1.17;;;;;9.30;102195.00;;;;10133313;29;20208;-83
2023/02/03 07:31:41;;;;;;;4.13;1.30;;;;;9.40;102177.00;;;;10098547;29;20208;-83
2023/02/03 07:36:43;;;;;;;6.27;1.60;;;;;9.50;102186.00;;;;10061727;29;20228;-82
2023/02/03 07:41:45;;;;;;;3.20;1.47;;;;;9.60;102213.00;;;;10111639;29;20206;-82
2023/02/03 07:46:47;;;;;;;3.80;1.57;;;;;9.60;102229.00;;;;10059114;29;20675;-82
2023/02/03 07:51:49;;;;;;;2.70;1.03;;;;;9.70;102226.00;;;;10099867;29;20751;-83
2023/02/03 07:56:51;;;;;;;9.63;1.77;;;;;9.70;102249.00;;;;10084197;29;20334;-83
2023/02/03 08:01:55;;;;;;;5.33;1.77;;;;;9.70;102241.00;;;;10114519;29;20199;-82
2023/02/03 08:06:57;;;;;;;4.33;1.00;;;;;9.80;102252.00;;;;10094677;29;20228;-83
2023/02/03 08:11:59;;;;;;;5.50;1.43;;;;;9.80;102240.00;;;;10065716;29;20264;-83
2023/02/03 08:17:01;;;;;;;3.63;1.23;;;;;9.90;102262.00;;;;10081148;29;20311;-83
2023/02/03 08:22:03;;;;;;;7.20;1.20;;;;;9.90;102280.00;;;;10113800;29;20226;-81
2023/02/03 08:27:04;;;;;;;7.70;1.40;;;;;9.90;102277.00;;;;10098671;29;20267;-82
2023/02/03 08:32:12;;;;;;;3.67;1.33;;;;;10.10;102276.00;;;;10062993;29;20214;-83
2023/02/03 08:37:16;;;;;;;6.77;1.00;;;;;10.30;102254.00;;;;10115563;29;20219;-82
2023/02/03 08:42:18;;;;;;;6.27;1.63;;;;;10.40;102256.00;;;;10098343;29;20227;-83
2023/02/03 08:47:21;;;;;;;3.43;1.17;;;;;10.40;102280.00;;;;10101074;29;20218;-82
2023/02/03 08:52:23;;;;;;;3.60;1.20;;;;;10.40;102294.00;;;;10117046;29;20694;-82
2023/02/03 08:57:25;;;;;;;5.93;1.07;;;;;10.40;102277.00;;;;10114378;29;20230;-82
2023/02/03 09:02:27;;;;;;;4.17;1.07;;;;;10.40;102281.00;;;;10104830;29;20200;-83
2023/02/03 09:07:31;;;;;;;3.47;1.17;;;;;10.40;102309.00;;;;10110174;29;20245;-83
2023/02/03 09:12:33;;;;;;;2.77;1.07;;;;;10.40;102311.00;;;;10070257;29;20275;-83
2023/02/03 09:17:35;;;;;;;4.20;1.20;;;;;10.30;102321.00;;;;10075043;29;20698;-84
2023/02/03 09:22:38;;;;;;;1.97;1.10;;;;;10.20;102332.00;;;;10090514;29;20209;-83
2023/02/03 09:27:40;;;;;;;5.70;1.30;;;;;10.30;102351.00;;;;10065688;29;20243;-83
2023/02/03 09:32:47;;;;;;;3.67;1.20;;;;;10.30;102337.00;;;;10083452;29;20255;-82
2023/02/03 09:37:49;;;;;;;2.50;1.70;;;;;10.60;102341.00;;;;10082286;29;20220;-82
2023/02/03 09:43:07;;;;;;;4.17;1.30;;;;;10.50;102353.00;;;;10073011;29;20199;-82
2023/02/03 09:48:17;;;;;;;9.37;2.50;;;;;10.50;102352.00;;;;10114331;29;20200;-83
2023/02/03 09:53:32;;;;;;;3.70;1.47;;;;;10.80;102335.00;;;;10087212;29;20311;-83
2023/02/03 09:58:34;;;;;;;2.50;1.60;;;;;10.90;102346.00;;;;10080030;29;20224;-82
2023/02/03 10:03:44;;;;;;;5.23;1.80;;;;;10.90;102339.00;;;;10064678;29;20200;-82
2023/02/03 10:09:01;;;;;;;3.93;1.67;;;;;11.20;102347.00;;;;10117336;29;20220;-82
2023/02/03 10:14:18;;;;;;;4.53;1.97;;;;;11.70;102328.00;;;;10090516;29;20663;-83
2023/02/03 10:19:37;;;;;;;4.20;1.93;;;;;12.10;102329.00;;;;10117079;29;20230;-82
2023/02/03 10:24:46;;;;;;;9.63;1.90;;;;;12.10;102333.00;;;;10113474;29;20215;-82
2023/02/03 10:29:56;;;;;;;4.23;1.63;;;;;12.00;102348.00;;;;10087865;29;20743;-81
2023/02/03 10:35:00;;;;;;;5.63;2.37;;;;;12.00;102343.00;;;;10102050;29;20216;-82
2023/02/03 10:40:03;;;;;;;3.27;2.13;;;;;11.70;102363.00;;;;10114957;29;20191;-82
2023/02/03 10:45:10;;;;;;;6.97;2.50;;;;;11.40;102369.00;;;;10074663;29;20529;-82
2023/02/03 10:50:20;;;;;;;5.73;2.70;;;;;11.30;102358.00;;;;10100779;29;20212;-82
2023/02/03 10:55:25;;;;;;;3.97;2.17;;;;;11.20;102370.00;;;;10116064;29;20711;-83
2023/02/03 11:00:30;;;;;;;4.93;2.60;;;;;11.10;102378.00;;;;10115126;29;20218;-82
2023/02/03 11:05:32;;;;;;;3.47;2.20;;;;;11.00;102388.00;;;;10083392;29;20306;-82
2023/02/03 11:10:37;;;;;;;6.03;2.30;;;;;10.90;102393.00;;;;10131019;29;20228;-83
2023/02/03 11:15:58;;;;;;;5.03;2.77;;;;;10.90;102393.00;;;;10100298;29;20230;-82
2023/02/03 11:21:06;;;;;;;6.70;2.70;;;;;10.80;102375.00;;;;10093111;29;20204;-82
2023/02/03 11:26:13;;;;;;;4.27;2.30;;;;;10.80;102401.00;;;;10113942;29;20230;-82
2023/02/03 11:31:24;;;;;;;3.27;2.50;;;;;10.90;102376.00;;;;10066358;29;20208;-83
2023/02/03 11:36:29;;;;;;;10.13;3.00;;;;;10.90;102369.00;;;;10091975;29;20231;-82
2023/02/03 11:41:36;;;;;;;7.47;3.07;;;;;10.90;102361.00;;;;10091564;29;20291;-82
2023/02/03 11:46:39;;;;;;;7.60;3.57;;;;;10.90;102351.00;;;;10098653;29;20262;-82
2023/02/03 11:51:56;;;;;;;5.33;2.40;;;;;11.00;102344.00;;;;10107646;29;20234;-82
2023/02/03 11:57:29;;;;;;;5.30;2.80;;;;;11.20;102354.00;;;;10114531;29;20227;-82
2023/02/03 12:03:23;;;;;;;2.90;2.23;;;;;11.10;102373.00;;;;10087972;29;20211;-82
2023/02/03 12:08:47;;;;;;;7.13;2.90;;;;;11.40;102370.00;;;;10100288;29;20232;-82
2023/02/03 12:14:07;;;;;;;3.33;2.10;;;;;11.40;102384.00;;;;10131656;29;20567;-82
2023/02/03 12:19:40;;;;;;;2.93;2.13;;;;;11.40;102394.00;;;;10122314;29;20226;-81
2023/02/03 12:24:58;;;;;;;2.23;2.03;;;;;11.30;102388.00;;;;10070790;29;20279;-83
2023/02/03 12:30:21;;;;;;;3.80;2.33;;;;;11.20;102387.00;;;;10102781;29;20216;-82
2023/02/03 12:35:32;;;;;;;4.60;2.70;;;;;11.60;102403.00;;;;10100069;29;20318;-82
2023/02/03 12:40:43;;;;;;;5.33;2.30;;;;;11.80;102382.00;;;;10096418;29;20226;-83
2023/02/03 12:45:55;;;;;;;3.70;2.20;;;;;12.00;102383.00;;;;10113510;29;20309;-83
2023/02/03 12:51:05;;;;;;;3.43;2.70;;;;;12.00;102385.00;;;;10120146;29;20210;-83
2023/02/03 12:56:12;;;;;;;7.73;1.90;;;;;12.00;102376.00;;;;10154719;29;20789;-83
2023/02/03 13:01:36;;;;;;;4.57;2.30;;;;;12.10;102375.00;;;;10053865;29;20664;-84
2023/02/03 13:06:47;;;;;;;3.37;2.07;;;;;12.10;102381.00;;;;10086384;29;20224;-82
2023/02/03 13:12:07;;;;;;;3.97;1.97;;;;;12.00;102383.00;;;;10116727;29;20216;-83
2023/02/03 13:17:36;;;;;;;3.40;1.47;;;;;11.90;102386.00;;;;10104202;29;20250;-83
2023/02/03 13:22:41;;;;;;;7.67;1.63;;;;;11.90;102363.00;;;;10107969;29;20213;-83
2023/02/03 13:28:07;;;;;;;2.63;1.67;;;;;11.80;102365.00;;;;10098736;29;20235;-82
2023/02/03 13:33:30;;;;;;;6.30;1.70;;;;;11.80;102355.00;;;;10093653;29;20234;-83
2023/02/03 13:38:38;;;;;;;3.20;2.00;;;;;11.80;102365.00;;;;10102727;29;20369;-83
2023/02/03 13:43:45;;;;;;;4.80;1.83;;;;;11.80;102359.00;;;;10111295;29;20780;-82
2023/02/03 13:48:48;;;;;;;4.47;1.60;;;;;11.80;102365.00;;;;10097516;29;20267;-82
2023/02/03 13:53:57;;;;;;;3.10;1.80;;;;;11.70;102364.00;;;;10087976;29;20200;-83
2023/02/03 13:58:59;;;;;;;5.23;1.67;;;;;11.50;102369.00;;;;10103754;29;20224;-84
2023/02/03 14:04:03;;;;;;;3.67;1.60;;;;;11.40;102371.00;;;;10091286;29;20231;-83
2023/02/03 14:09:29;;;;;;;3.50;2.03;;;;;11.40;102376.00;;;;10117403;29;20220;-83
2023/02/03 14:14:33;;;;;;;7.73;1.80;;;;;11.30;102375.00;;;;10141289;29;20214;-83
2023/02/03 14:19:51;;;;;;;3.57;1.60;;;;;11.30;102387.00;;;;10115888;29;20223;-85
2023/02/03 14:24:55;;;;;;;6.60;2.53;;;;;11.40;102390.00;;;;10110373;29;20249;-85
2023/02/03 14:30:11;;;;;;;3.23;1.93;;;;;11.40;102393.00;;;;10132812;29;20200;-83
2023/02/03 14:35:16;;;;;;;3.97;1.73;;;;;11.50;102392.00;;;;10108786;29;20203;-85
2023/02/03 14:40:43;;;;;;;4.17;1.80;;;;;11.50;102384.00;;;;10111576;29;20263;-84
2023/02/03 14:46:00;;;;;;;4.80;1.67;;;;;11.40;102403.00;;;;10121541;29;20196;-84
2023/02/03 14:51:48;;;;;;;3.80;1.70;;;;;11.30;102395.00;;;;10121315;29;20207;-84
2023/02/03 14:57:15;;;;;;;3.33;1.83;;;;;11.20;102407.00;;;;10108521;29;20258;-84
2023/02/03 15:02:24;;;;;;;6.00;1.90;;;;;11.20;102401.00;;;;10090849;29;20230;-83
2023/02/03 15:07:44;;;;;;;4.80;1.80;;;;;11.20;102405.00;;;;10095419;29;20283;-85
2023/02/03 15:12:50;;;;;;;4.07;1.87;;;;;11.10;102409.00;;;;10079577;29;20910;-85
2023/02/03 15:17:55;;;;;;;4.13;1.80;;;;;11.10;102415.00;;;;10103480;29;20223;-84
2023/02/03 15:22:57;;;;;;;3.13;1.80;;;;;11.10;102419.00;;;;10099747;29;20208;-83
2023/02/03 15:28:15;;;;;;;5.17;1.90;;;;;11.00;102418.00;;;;10099223;29;20668;-85
2023/02/03 15:33:21;;;;;;;6.43;2.30;;;;;11.00;102421.00;;;;10104150;29;20238;-85
2023/02/03 15:38:32;;;;;;;6.57;2.00;;;;;11.10;102420.00;;;;10112435;29;20231;-84
2023/02/03 15:43:44;;;;;;;5.03;2.40;;;;;11.10;102434.00;;;;10088449;29;20214;-85
2023/02/03 15:48:57;;;;;;;4.90;2.23;;;;;11.10;102440.00;;;;10098484;29;20203;-85
2023/02/03 15:54:10;;;;;;;3.67;2.13;;;;;11.00;102445.00;;;;10085906;29;20308;-84
2023/02/03 15:59:18;;;;;;;3.73;2.40;;;;;10.90;102445.00;;;;10092963;29;20234;-84
2023/02/03 16:04:21;;;;;;;6.07;2.27;;;;;10.90;102450.00;;;;10098698;29;20232;-84
2023/02/03 16:09:31;;;;;;;3.50;2.00;;;;;10.80;102450.00;;;;10078618;29;20271;-85
2023/02/03 16:14:35;;;;;;;4.47;2.90;;;;;10.80;102460.00;;;;10105821;29;20641;-85
2023/02/03 16:19:40;;;;;;;5.13;2.70;;;;;10.70;102463.00;;;;10102126;29;20242;-86
2023/02/03 16:24:44;;;;;;;5.53;2.23;;;;;10.60;102460.00;;;;10091195;29;20225;-85
2023/02/03 16:51:16;;;;;;;2.57;1.90;;;;;10.10;102492.00;;;;10097811;29;20203;-84
2023/02/03 16:56:18;;;;;;;3.53;2.50;;;;;10.10;102505.00;;;;10112924;29;20662;-84
2023/02/03 17:01:19;;;;;;;3.03;2.40;;;;;10.00;102500.00;;;;10097332;29;20215;-84
2023/02/03 17:06:22;;;;;;;4.63;2.13;;;;;9.90;102510.00;;;;10095290;29;20239;-84
2023/02/03 17:11:23;;;;;;;3.03;2.20;;;;;9.90;102515.00;;;;10081527;29;20242;-84
2023/02/03 17:16:27;;;;;;;4.03;2.17;;;;;10.00;102508.00;;;;10097077;29;20224;-84
2023/02/03 17:21:29;;;;;;;4.30;2.80;;;;;10.00;102516.00;;;;10097069;29;20240;-84
2023/02/03 17:26:33;;;;;;;7.57;2.30;;;;;10.00;102513.00;;;;10088423;29;20226;-84
2023/02/03 17:31:35;;;;;;;5.07;2.20;;;;;9.90;102523.00;;;;10097841;29;20264;-84
2023/02/03 17:36:37;;;;;;;4.37;2.20;;;;;9.80;102526.00;;;;10097531;29;20216;-84
2023/02/03 17:41:39;;;;;;;3.40;2.20;;;;;9.70;102542.00;;;;10097268;29;20215;-84
2023/02/03 17:46:59;;;;;;;7.30;2.40;;;;;9.70;102542.00;;;;10137900;29;20199;-84
2023/02/03 17:52:18;;;;;;;5.10;2.30;;;;;9.60;102553.00;;;;10087010;29;20194;-84
2023/02/03 17:57:39;;;;;;;3.13;2.60;;;;;9.60;102562.00;;;;10068091;29;20223;-82
2023/02/03 18:02:41;;;;;;;5.70;2.50;;;;;9.70;102563.00;;;;10095503;29;20208;-83
2023/02/03 18:07:44;;;;;;;4.87;2.87;;;;;9.70;102576.00;;;;10093556;29;20249;-83
2023/02/03 18:13:26;;;;;;;5.40;2.90;;;;;9.80;102583.00;;;;10668989;27;20590;-86
2023/02/03 18:18:50;;;;;;;8.00;2.97;;;;;9.80;102584.00;;;;10558368;27;20203;-82
2023/02/03 18:23:57;;;;;;;9.17;2.80;;;;;9.90;102601.00;;;;10603905;27;20207;-84
2023/02/03 18:29:00;;;;;;;6.03;2.90;;;;;9.90;102578.00;;;;10578739;27;20264;-83
2023/02/03 18:34:05;;;;;;;6.83;2.73;;;;;10.00;102594.00;;;;10541628;27;20203;-85
2023/02/03 18:39:07;;;;;;;6.77;2.97;;;;;10.00;102597.00;;;;10542726;27;20789;-84
2023/02/03 18:44:12;;;;;;;8.00;2.93;;;;;10.00;102605.00;;;;10578128;27;20253;-84
2023/02/03 18:49:13;;;;;;;6.87;3.40;;;;;10.00;102621.00;;;;10575132;27;20203;-85
2023/02/03 18:54:14;;;;;;;6.90;2.97;;;;;10.00;102627.00;;;;10561601;27;20203;-84
2023/02/03 18:59:16;;;;;;;8.00;3.10;;;;;10.10;102623.00;;;;10570834;27;20231;-84
2023/02/03 19:04:18;;;;;;;3.23;2.73;;;;;10.10;102626.00;;;;10564385;27;20347;-85
2023/02/03 19:09:21;;;;;;;5.67;3.00;;;;;10.10;102634.00;;;;10525196;27;20217;-84
2023/02/03 19:14:23;;;;;;;8.20;3.70;;;;;10.10;102638.00;;;;10535040;27;20197;-85
2023/02/03 19:19:24;;;;;;;4.93;2.90;;;;;10.10;102640.00;;;;10522810;27;20247;-85
2023/02/03 19:24:26;;;;;;;9.37;4.20;;;;;10.10;102645.00;;;;10488418;28;20232;-84
2023/02/03 19:29:27;;;;;;;5.07;3.17;;;;;10.10;102644.00;;;;10487129;28;20874;-84
2023/02/03 19:34:28;;;;;;;5.83;3.57;;;;;10.10;102654.00;;;;10526322;27;20738;-84
2023/02/03 19:39:31;;;;;;;4.93;3.40;;;;;10.10;102661.00;;;;10539455;27;20249;-84
2023/02/03 19:44:32;;;;;;;6.43;4.50;;;;;10.20;102660.00;;;;10511867;27;20198;-85
2023/02/03 19:49:33;;;;;;;9.70;5.30;;;;;10.20;102659.00;;;;10497058;28;20223;-84
2023/02/03 19:54:35;;;;;;;6.93;4.30;;;;;10.20;102659.00;;;;10480880;28;20201;-85
2023/02/03 19:59:36;;;;;;;7.63;4.60;;;;;10.10;102656.00;;;;10465825;28;20228;-85
2023/02/03 20:04:37;;;;;;;10.57;5.30;;;;;10.10;102657.00;;;;10473772;28;20200;-84
2023/02/03 20:09:38;;;;;;;11.10;5.67;;;;;10.00;102659.00;;;;10510151;28;20268;-84
2023/02/03 20:14:40;;;;;;;10.13;5.40;;;;;9.90;102660.00;;;;10491919;28;20227;-84
2023/02/03 20:19:41;;;;;;;12.03;5.70;;;;;9.80;102669.00;;;;10514303;27;20201;-85
2023/02/03 20:24:42;;;;;;;16.73;7.37;;;;;9.60;102676.00;;;;10514294;27;20273;-85
2023/02/03 20:29:44;;;;;;;10.70;6.97;;;;;9.50;102681.00;;;;10502723;28;20224;-83
2023/02/03 20:34:45;;;;;;;13.30;7.20;;;;;9.50;102685.00;;;;10501277;28;20201;-83
2023/02/03 20:39:46;;;;;;;10.87;6.20;;;;;9.40;102688.00;;;;10495072;28;20843;-83
2023/02/03 20:44:47;;;;;;;11.73;6.77;;;;;9.40;102695.00;;;;10490512;28;20209;-84
2023/02/03 20:49:49;;;;;;;12.67;8.77;;;;;9.30;102696.00;;;;10466480;27;20220;-83
2023/02/03 20:54:54;;;;;;;11.70;8.63;;;;;9.30;102687.00;;;;10476987;28;20485;-82
2023/02/03 20:59:55;;;;;;;15.33;8.87;;;;;9.30;102686.00;;;;10514009;27;20589;-81
2023/02/03 21:04:57;;;;;;;15.33;8.73;;;;;9.30;102684.00;;;;10472938;28;20899;-81
2023/02/03 21:10:00;;;;;;;17.07;8.50;;;;;9.30;102689.00;;;;10467827;28;20919;-82
2023/02/03 21:15:01;;;;;;;13.53;8.30;;;;;9.30;102689.00;;;;10474930;28;20192;-82
2023/02/03 21:20:21;;;;;;;15.23;8.90;;;;;9.30;102682.00;;;;10496111;28;20228;-82
2023/02/03 21:25:32;;;;;;;17.80;9.33;;;;;9.40;102684.00;;;;10494037;28;20250;-82
2023/02/03 21:30:35;;;;;;;14.50;8.63;;;;;9.40;102684.00;;;;10470984;28;20213;-83
2023/02/03 21:35:37;;;;;;;13.37;8.77;;;;;9.40;102682.00;;;;10487186;28;20300;-82
2023/02/03 21:40:38;;;;;;;15.43;8.50;;;;;9.40;102685.00;;;;10505512;28;20796;-82
2023/02/03 21:45:43;;;;;;;14.07;7.90;;;;;9.50;102678.00;;;;10481921;28;20296;-82
2023/02/03 21:50:45;;;;;;;17.77;9.50;;;;;9.50;102671.00;;;;10455847;28;20255;-82
2023/02/03 21:55:46;;;;;;;12.10;7.87;;;;;9.50;102677.00;;;;10490657;28;20633;-83
2023/02/03 22:00:49;;;;;;;13.77;9.50;;;;;9.50;102675.00;;;;10502686;28;20291;-82
2023/02/03 22:06:08;;;;;;;21.90;13.17;;;;;9.50;102682.00;;;;10474863;28;20200;-82
2023/02/03 22:11:09;;;;;;;15.70;10.83;;;;;9.40;102674.00;;;;10505408;28;20931;-82
2023/02/03 22:16:12;;;;;;;17.70;11.60;;;;;9.40;102670.00;;;;10483588;28;20189;-82
2023/02/03 22:21:15;;;;;;;17.77;10.73;;;;;9.50;102674.00;;;;10445746;28;20798;-82
2023/02/03 22:26:17;;;;;;;20.13;11.40;;;;;9.50;102688.00;;;;10458386;28;20674;-82
2023/02/03 22:31:19;;;;;;;19.17;11.80;;;;;9.50;102685.00;;;;10460052;28;20351;-82
2023/02/03 22:36:22;;;;;;;19.20;12.00;;;;;9.50;102690.00;;;;10457154;28;20541;-83
2023/02/03 22:41:23;;;;;;;17.27;10.10;;;;;9.50;102699.00;;;;10468664;27;20217;-82
2023/02/03 22:46:25;;;;;;;19.47;10.43;;;;;9.60;102707.00;;;;10486616;28;20198;-82
2023/02/03 22:51:27;;;;;;;16.73;10.10;;;;;9.60;102707.00;;;;10487854;28;20223;-81
2023/02/03 22:56:28;;;;;;;18.57;9.87;;;;;9.60;102717.00;;;;10491121;28;20694;-82
2023/02/03 23:01:30;;;;;;;14.80;9.27;;;;;9.70;102711.00;;;;10497674;28;20288;-82
2023/02/03 23:06:31;;;;;;;17.50;9.67;;;;;9.70;102718.00;;;;10460438;28;20205;-82
2023/02/03 23:11:32;;;;;;;14.07;8.87;;;;;9.70;102717.00;;;;10477627;28;20228;-82
2023/02/03 23:16:33;;;;;;;17.30;8.90;;;;;9.70;102731.00;;;;10498616;28;20575;-83
2023/02/03 23:21:35;;;;;;;11.00;7.87;;;;;9.70;102729.00;;;;10484576;28;20296;-83
2023/02/03 23:26:36;;;;;;;15.90;8.33;;;;;9.70;102739.00;;;;10477852;28;20197;-83
2023/02/03 23:31:37;;;;;;;13.67;8.67;;;;;9.80;102739.00;;;;10467630;28;20216;-83
2023/02/03 23:36:38;;;;;;;13.60;8.20;;;;;9.70;102752.00;;;;10491825;28;20201;-83
2023/02/03 23:41:39;;;;;;;14.57;7.97;;;;;9.80;102742.00;;;;10436124;28;20863;-83
2023/02/03 23:46:41;;;;;;;14.27;8.47;;;;;9.80;102750.00;;;;10470745;28;20239;-84
2023/02/03 23:51:42;;;;;;;11.37;7.93;;;;;9.70;102752.00;;;;10481412;28;20211;-83
2023/02/03 23:56:43;;;;;;;12.80;8.47;;;;;9.60;102760.00;;;;10538513;27;20225;-83
